sensor_id;sensor_type;location;lat;lon;timestamp;P1;durP1;ratioP1;P2;durP2;ratioP2
11743;SDS011;5929;51.906;7.674;2023-06-26T00:00:09;11.10;;;9.68;;
11743;SDS011;5929;51.906;7.674;2023-06-26T00:02:40;12.52;;;9.73;;
11743;SDS011;5929;51.906;7.674;2023-06-26T00:05:07;12.18;;;9.48;;
11743;SDS011;5929;51.906;7.674;2023-06-26T00:07:34;12.82;;;9.70;;
11743;SDS011;5929;51.906;7.674;2023-06-26T00:10:01;10.60;;;9.38;;
11743;SDS011;5929;51.906;7.674;2023-06-26T00:12:30;12.48;;;9.65;;
11743;SDS011;5929;51.906;7.674;2023-06-26T00:14:58;10.38;;;9.05;;
11743;SDS011;5929;51.906;7.674;2023-06-26T00:17:25;11.00;;;9.10;;
11743;SDS011;5929;51.906;7.674;2023-06-26T00:19:52;13.43;;;10.15;;
11743;SDS011;5929;51.906;7.674;2023-06-26T00:22:19;15.40;;;9.50;;
11743;SDS011;5929;51.906;7.674;2023-06-26T00:24:47;11.48;;;9.63;;
11743;SDS011;5929;51.906;7.674;2023-06-26T00:27:14;11.73;;;9.73;;
11743;SDS011;5929;51.906;7.674;2023-06-26T00:29:42;12.73;;;9.57;;
11743;SDS011;5929;51.906;7.674;2023-06-26T00:32:08;11.85;;;10.23;;
11743;SDS011;5929;51.906;7.674;2023-06-26T00:34:35;12.68;;;9.85;;
11743;SDS011;5929;51.906;7.674;2023-06-26T00:37:02;12.57;;;9.82;;
11743;SDS011;5929;51.906;7.674;2023-06-26T00:39:29;13.65;;;10.85;;
11743;SDS011;5929;51.906;7.674;2023-06-26T00:41:56;15.43;;;11.05;;
11743;SDS011;5929;51.906;7.674;2023-06-26T00:44:23;17.77;;;10.13;;
11743;SDS011;5929;51.906;7.674;2023-06-26T00:46:51;13.43;;;9.45;;
11743;SDS011;5929;51.906;7.674;2023-06-26T00:49:18;12.82;;;10.45;;
11743;SDS011;5929;51.906;7.674;2023-06-26T00:51:45;10.23;;;6.75;;
11743;SDS011;5929;51.906;7.674;2023-06-26T00:54:12;13.23;;;9.90;;
11743;SDS011;5929;51.906;7.674;2023-06-26T00:56:45;11.70;;;10.23;;
11743;SDS011;5929;51.906;7.674;2023-06-26T00:59:11;14.48;;;10.77;;
11743;SDS011;5929;51.906;7.674;2023-06-26T01:01:39;13.18;;;10.60;;
11743;SDS011;5929;51.906;7.674;2023-06-26T01:04:07;13.30;;;10.30;;
11743;SDS011;5929;51.906;7.674;2023-06-26T01:06:43;14.85;;;10.65;;
11743;SDS011;5929;51.906;7.674;2023-06-26T01:09:14;12.82;;;10.48;;
11743;SDS011;5929;51.906;7.674;2023-06-26T01:11:42;11.93;;;10.52;;
11743;SDS011;5929;51.906;7.674;2023-06-26T01:14:09;14.82;;;10.60;;
11743;SDS011;5929;51.906;7.674;2023-06-26T01:16:36;12.15;;;10.00;;
11743;SDS011;5929;51.906;7.674;2023-06-26T01:19:04;11.63;;;9.82;;
11743;SDS011;5929;51.906;7.674;2023-06-26T01:21:40;12.02;;;9.90;;
11743;SDS011;5929;51.906;7.674;2023-06-26T01:24:12;12.52;;;10.73;;
11743;SDS011;5929;51.906;7.674;2023-06-26T01:26:46;13.38;;;10.68;;
11743;SDS011;5929;51.906;7.674;2023-06-26T01:29:17;13.35;;;10.80;;
11743;SDS011;5929;51.906;7.674;2023-06-26T01:31:44;11.35;;;9.90;;
11743;SDS011;5929;51.906;7.674;2023-06-26T01:34:14;12.13;;;10.00;;
11743;SDS011;5929;51.906;7.674;2023-06-26T01:36:43;14.68;;;10.15;;
11743;SDS011;5929;51.906;7.674;2023-06-26T01:39:12;13.82;;;10.20;;
11743;SDS011;5929;51.906;7.674;2023-06-26T01:41:41;16.25;;;10.73;;
11743;SDS011;5929;51.906;7.674;2023-06-26T01:44:13;13.82;;;10.65;;
11743;SDS011;5929;51.906;7.674;2023-06-26T01:46:47;12.45;;;11.10;;
11743;SDS011;5929;51.906;7.674;2023-06-26T01:49:21;13.23;;;9.95;;
11743;SDS011;5929;51.906;7.674;2023-06-26T01:51:57;15.55;;;10.40;;
11743;SDS011;5929;51.906;7.674;2023-06-26T01:54:29;12.05;;;10.10;;
11743;SDS011;5929;51.906;7.674;2023-06-26T01:57:01;11.38;;;9.57;;
11743;SDS011;5929;51.906;7.674;2023-06-26T01:59:29;12.57;;;11.05;;
11743;SDS011;5929;51.906;7.674;2023-06-26T02:02:00;13.18;;;10.52;;
11743;SDS011;5929;51.906;7.674;2023-06-26T02:04:27;11.85;;;10.18;;
11743;SDS011;5929;51.906;7.674;2023-06-26T02:06:54;13.43;;;9.75;;
11743;SDS011;5929;51.906;7.674;2023-06-26T02:09:21;14.48;;;10.93;;
11743;SDS011;5929;51.906;7.674;2023-06-26T02:11:50;12.90;;;10.70;;
11743;SDS011;5929;51.906;7.674;2023-06-26T02:14:17;12.18;;;9.88;;
11743;SDS011;5929;51.906;7.674;2023-06-26T02:16:45;12.27;;;9.73;;
11743;SDS011;5929;51.906;7.674;2023-06-26T02:19:12;12.63;;;10.88;;
11743;SDS011;5929;51.906;7.674;2023-06-26T02:21:46;12.68;;;10.07;;
11743;SDS011;5929;51.906;7.674;2023-06-26T02:24:13;11.50;;;9.35;;
11743;SDS011;5929;51.906;7.674;2023-06-26T02:26:40;12.50;;;9.77;;
11743;SDS011;5929;51.906;7.674;2023-06-26T02:29:07;13.38;;;10.02;;
11743;SDS011;5929;51.906;7.674;2023-06-26T02:31:33;12.85;;;10.13;;
11743;SDS011;5929;51.906;7.674;2023-06-26T02:34:02;11.60;;;9.27;;
11743;SDS011;5929;51.906;7.674;2023-06-26T02:36:28;14.07;;;10.45;;
11743;SDS011;5929;51.906;7.674;2023-06-26T02:38:55;10.85;;;9.05;;
11743;SDS011;5929;51.906;7.674;2023-06-26T02:41:22;12.50;;;9.32;;
11743;SDS011;5929;51.906;7.674;2023-06-26T02:43:49;11.80;;;9.50;;
11743;SDS011;5929;51.906;7.674;2023-06-26T02:46:16;13.00;;;9.48;;
11743;SDS011;5929;51.906;7.674;2023-06-26T02:48:42;12.05;;;9.45;;
11743;SDS011;5929;51.906;7.674;2023-06-26T02:51:11;10.77;;;8.98;;
11743;SDS011;5929;51.906;7.674;2023-06-26T02:53:37;12.32;;;9.52;;
11743;SDS011;5929;51.906;7.674;2023-06-26T02:56:04;12.73;;;8.98;;
11743;SDS011;5929;51.906;7.674;2023-06-26T02:58:31;13.73;;;8.50;;
11743;SDS011;5929;51.906;7.674;2023-06-26T03:00:58;12.55;;;8.45;;
11743;SDS011;5929;51.906;7.674;2023-06-26T03:03:25;11.50;;;9.32;;
11743;SDS011;5929;51.906;7.674;2023-06-26T03:05:51;12.48;;;9.07;;
11743;SDS011;5929;51.906;7.674;2023-06-26T03:08:19;12.82;;;9.13;;
11743;SDS011;5929;51.906;7.674;2023-06-26T03:10:46;11.57;;;9.20;;
11743;SDS011;5929;51.906;7.674;2023-06-26T03:13:13;12.27;;;8.80;;
11743;SDS011;5929;51.906;7.674;2023-06-26T03:15:40;13.57;;;9.50;;
11743;SDS011;5929;51.906;7.674;2023-06-26T03:18:07;12.82;;;9.57;;
11743;SDS011;5929;51.906;7.674;2023-06-26T03:20:34;12.88;;;9.43;;
11743;SDS011;5929;51.906;7.674;2023-06-26T03:23:01;11.32;;;9.13;;
11743;SDS011;5929;51.906;7.674;2023-06-26T03:25:30;12.18;;;9.70;;
11743;SDS011;5929;51.906;7.674;2023-06-26T03:27:59;16.13;;;10.10;;
11743;SDS011;5929;51.906;7.674;2023-06-26T03:30:26;12.23;;;8.35;;
11743;SDS011;5929;51.906;7.674;2023-06-26T03:32:53;10.35;;;8.50;;
11743;SDS011;5929;51.906;7.674;2023-06-26T03:35:19;13.13;;;9.02;;
11743;SDS011;5929;51.906;7.674;2023-06-26T03:37:46;12.30;;;8.88;;
11743;SDS011;5929;51.906;7.674;2023-06-26T03:40:13;12.48;;;9.15;;
11743;SDS011;5929;51.906;7.674;2023-06-26T03:42:42;10.57;;;8.43;;
11743;SDS011;5929;51.906;7.674;2023-06-26T03:45:11;14.02;;;8.38;;
11743;SDS011;5929;51.906;7.674;2023-06-26T03:47:38;12.35;;;8.93;;
11743;SDS011;5929;51.906;7.674;2023-06-26T03:50:05;12.73;;;8.40;;
11743;SDS011;5929;51.906;7.674;2023-06-26T03:52:32;10.65;;;8.63;;
11743;SDS011;5929;51.906;7.674;2023-06-26T03:54:59;10.90;;;8.80;;
11743;SDS011;5929;51.906;7.674;2023-06-26T03:57:26;10.80;;;8.57;;
11743;SDS011;5929;51.906;7.674;2023-06-26T03:59:54;11.88;;;7.72;;
11743;SDS011;5929;51.906;7.674;2023-06-26T04:02:21;11.50;;;8.10;;
11743;SDS011;5929;51.906;7.674;2023-06-26T04:04:48;10.23;;;7.57;;
11743;SDS011;5929;51.906;7.674;2023-06-26T04:07:15;12.77;;;8.45;;
11743;SDS011;5929;51.906;7.674;2023-06-26T04:09:42;10.48;;;7.45;;
11743;SDS011;5929;51.906;7.674;2023-06-26T04:12:09;10.77;;;7.85;;
11743;SDS011;5929;51.906;7.674;2023-06-26T04:14:36;14.50;;;7.78;;
11743;SDS011;5929;51.906;7.674;2023-06-26T04:17:04;11.80;;;7.85;;
11743;SDS011;5929;51.906;7.674;2023-06-26T04:19:31;17.35;;;8.82;;
11743;SDS011;5929;51.906;7.674;2023-06-26T04:21:58;11.00;;;8.40;;
11743;SDS011;5929;51.906;7.674;2023-06-26T04:24:25;13.20;;;8.48;;
11743;SDS011;5929;51.906;7.674;2023-06-26T04:26:52;13.25;;;7.78;;
11743;SDS011;5929;51.906;7.674;2023-06-26T04:29:25;13.52;;;8.18;;
11743;SDS011;5929;51.906;7.674;2023-06-26T04:31:54;10.98;;;7.95;;
11743;SDS011;5929;51.906;7.674;2023-06-26T04:34:24;11.30;;;7.80;;
11743;SDS011;5929;51.906;7.674;2023-06-26T04:36:51;10.50;;;7.90;;
11743;SDS011;5929;51.906;7.674;2023-06-26T04:39:18;12.70;;;7.47;;
11743;SDS011;5929;51.906;7.674;2023-06-26T04:41:45;10.38;;;7.97;;
11743;SDS011;5929;51.906;7.674;2023-06-26T04:44:11;10.38;;;7.35;;
11743;SDS011;5929;51.906;7.674;2023-06-26T04:46:38;12.00;;;7.35;;
11743;SDS011;5929;51.906;7.674;2023-06-26T04:49:06;12.13;;;7.18;;
11743;SDS011;5929;51.906;7.674;2023-06-26T04:51:34;11.27;;;7.45;;
11743;SDS011;5929;51.906;7.674;2023-06-26T04:54:07;11.18;;;7.32;;
11743;SDS011;5929;51.906;7.674;2023-06-26T04:56:35;13.75;;;7.53;;
11743;SDS011;5929;51.906;7.674;2023-06-26T04:59:02;10.77;;;7.28;;
11743;SDS011;5929;51.906;7.674;2023-06-26T05:01:29;16.33;;;8.40;;
11743;SDS011;5929;51.906;7.674;2023-06-26T05:03:57;11.00;;;7.72;;
11743;SDS011;5929;51.906;7.674;2023-06-26T05:06:24;11.63;;;8.27;;
11743;SDS011;5929;51.906;7.674;2023-06-26T05:08:52;12.07;;;7.18;;
11743;SDS011;5929;51.906;7.674;2023-06-26T05:11:19;11.40;;;7.88;;
11743;SDS011;5929;51.906;7.674;2023-06-26T05:13:46;11.48;;;7.40;;
11743;SDS011;5929;51.906;7.674;2023-06-26T05:16:13;12.80;;;8.85;;
11743;SDS011;5929;51.906;7.674;2023-06-26T05:18:40;15.27;;;8.77;;
11743;SDS011;5929;51.906;7.674;2023-06-26T05:21:07;11.93;;;8.48;;
11743;SDS011;5929;51.906;7.674;2023-06-26T05:23:37;10.70;;;8.27;;
11743;SDS011;5929;51.906;7.674;2023-06-26T05:26:06;16.15;;;9.65;;
11743;SDS011;5929;51.906;7.674;2023-06-26T05:28:33;14.40;;;9.30;;
11743;SDS011;5929;51.906;7.674;2023-06-26T05:31:01;12.48;;;9.27;;
11743;SDS011;5929;51.906;7.674;2023-06-26T05:33:31;13.18;;;9.40;;
11743;SDS011;5929;51.906;7.674;2023-06-26T05:36:01;13.20;;;9.02;;
11743;SDS011;5929;51.906;7.674;2023-06-26T05:38:31;18.85;;;9.73;;
11743;SDS011;5929;51.906;7.674;2023-06-26T05:40:59;15.18;;;9.15;;
11743;SDS011;5929;51.906;7.674;2023-06-26T05:43:28;13.95;;;8.52;;
11743;SDS011;5929;51.906;7.674;2023-06-26T05:45:55;12.73;;;8.43;;
11743;SDS011;5929;51.906;7.674;2023-06-26T05:48:25;11.15;;;8.93;;
11743;SDS011;5929;51.906;7.674;2023-06-26T05:50:52;16.05;;;9.27;;
11743;SDS011;5929;51.906;7.674;2023-06-26T05:53:20;11.88;;;8.18;;
11743;SDS011;5929;51.906;7.674;2023-06-26T05:55:47;13.52;;;9.95;;
11743;SDS011;5929;51.906;7.674;2023-06-26T05:58:14;14.23;;;8.98;;
11743;SDS011;5929;51.906;7.674;2023-06-26T06:00:45;14.27;;;9.52;;
11743;SDS011;5929;51.906;7.674;2023-06-26T06:03:12;15.73;;;9.40;;
11743;SDS011;5929;51.906;7.674;2023-06-26T06:05:39;13.57;;;8.93;;
11743;SDS011;5929;51.906;7.674;2023-06-26T06:08:06;22.88;;;9.13;;
11743;SDS011;5929;51.906;7.674;2023-06-26T06:10:33;12.57;;;8.40;;
11743;SDS011;5929;51.906;7.674;2023-06-26T06:13:00;15.02;;;8.25;;
11743;SDS011;5929;51.906;7.674;2023-06-26T06:15:26;12.13;;;7.85;;
11743;SDS011;5929;51.906;7.674;2023-06-26T06:17:55;14.25;;;7.32;;
11743;SDS011;5929;51.906;7.674;2023-06-26T06:20:21;16.48;;;7.43;;
11743;SDS011;5929;51.906;7.674;2023-06-26T06:22:48;12.52;;;7.25;;
11743;SDS011;5929;51.906;7.674;2023-06-26T06:25:15;14.27;;;6.85;;
11743;SDS011;5929;51.906;7.674;2023-06-26T06:27:42;11.40;;;6.18;;
11743;SDS011;5929;51.906;7.674;2023-06-26T06:30:09;12.52;;;6.05;;
11743;SDS011;5929;51.906;7.674;2023-06-26T06:32:37;11.25;;;6.40;;
11743;SDS011;5929;51.906;7.674;2023-06-26T06:35:06;13.00;;;6.68;;
11743;SDS011;5929;51.906;7.674;2023-06-26T06:37:35;14.05;;;6.78;;
11743;SDS011;5929;51.906;7.674;2023-06-26T06:40:03;11.60;;;6.25;;
11743;SDS011;5929;51.906;7.674;2023-06-26T06:42:31;13.45;;;6.40;;
11743;SDS011;5929;51.906;7.674;2023-06-26T06:44:58;11.60;;;5.20;;
11743;SDS011;5929;51.906;7.674;2023-06-26T06:47:26;13.95;;;6.05;;
11743;SDS011;5929;51.906;7.674;2023-06-26T06:49:53;13.63;;;5.80;;
11743;SDS011;5929;51.906;7.674;2023-06-26T06:52:21;12.93;;;5.50;;
11743;SDS011;5929;51.906;7.674;2023-06-26T06:54:52;10.55;;;5.97;;
11743;SDS011;5929;51.906;7.674;2023-06-26T06:57:19;13.02;;;5.80;;
11743;SDS011;5929;51.906;7.674;2023-06-26T06:59:49;16.45;;;5.97;;
11743;SDS011;5929;51.906;7.674;2023-06-26T07:02:17;14.27;;;5.72;;
11743;SDS011;5929;51.906;7.674;2023-06-26T07:04:43;12.05;;;5.70;;
11743;SDS011;5929;51.906;7.674;2023-06-26T07:07:13;11.18;;;5.97;;
11743;SDS011;5929;51.906;7.674;2023-06-26T07:09:41;14.48;;;5.65;;
11743;SDS011;5929;51.906;7.674;2023-06-26T07:12:08;12.93;;;5.63;;
11743;SDS011;5929;51.906;7.674;2023-06-26T07:14:35;14.93;;;6.22;;
11743;SDS011;5929;51.906;7.674;2023-06-26T07:17:02;11.02;;;6.68;;
11743;SDS011;5929;51.906;7.674;2023-06-26T07:19:29;17.08;;;6.30;;
11743;SDS011;5929;51.906;7.674;2023-06-26T07:21:55;14.93;;;6.72;;
11743;SDS011;5929;51.906;7.674;2023-06-26T07:24:22;12.95;;;6.28;;
11743;SDS011;5929;51.906;7.674;2023-06-26T07:26:50;16.10;;;7.07;;
11743;SDS011;5929;51.906;7.674;2023-06-26T07:29:17;14.43;;;7.22;;
11743;SDS011;5929;51.906;7.674;2023-06-26T07:31:44;13.60;;;7.10;;
11743;SDS011;5929;51.906;7.674;2023-06-26T07:34:11;14.20;;;7.22;;
11743;SDS011;5929;51.906;7.674;2023-06-26T07:36:38;14.63;;;7.20;;
11743;SDS011;5929;51.906;7.674;2023-06-26T07:39:05;14.60;;;7.50;;
11743;SDS011;5929;51.906;7.674;2023-06-26T07:41:34;15.15;;;7.43;;
11743;SDS011;5929;51.906;7.674;2023-06-26T07:44:02;18.70;;;7.45;;
11743;SDS011;5929;51.906;7.674;2023-06-26T07:46:29;17.25;;;7.20;;
11743;SDS011;5929;51.906;7.674;2023-06-26T07:48:56;11.63;;;6.57;;
11743;SDS011;5929;51.906;7.674;2023-06-26T07:51:23;14.52;;;6.78;;
11743;SDS011;5929;51.906;7.674;2023-06-26T07:53:50;14.52;;;7.15;;
11743;SDS011;5929;51.906;7.674;2023-06-26T07:56:17;12.63;;;6.55;;
11743;SDS011;5929;51.906;7.674;2023-06-26T07:58:44;12.65;;;7.20;;
11743;SDS011;5929;51.906;7.674;2023-06-26T08:01:12;15.82;;;6.80;;
11743;SDS011;5929;51.906;7.674;2023-06-26T08:03:39;12.43;;;6.90;;
11743;SDS011;5929;51.906;7.674;2023-06-26T08:06:06;15.68;;;6.88;;
11743;SDS011;5929;51.906;7.674;2023-06-26T08:08:33;13.60;;;7.07;;
11743;SDS011;5929;51.906;7.674;2023-06-26T08:10:59;14.40;;;6.65;;
11743;SDS011;5929;51.906;7.674;2023-06-26T08:13:26;15.52;;;6.60;;
11743;SDS011;5929;51.906;7.674;2023-06-26T08:15:53;14.35;;;7.28;;
11743;SDS011;5929;51.906;7.674;2023-06-26T08:18:21;13.80;;;6.50;;
11743;SDS011;5929;51.906;7.674;2023-06-26T08:20:48;14.95;;;7.53;;
11743;SDS011;5929;51.906;7.674;2023-06-26T08:23:15;16.65;;;6.95;;
11743;SDS011;5929;51.906;7.674;2023-06-26T08:25:42;15.27;;;7.20;;
11743;SDS011;5929;51.906;7.674;2023-06-26T08:28:09;12.85;;;6.45;;
11743;SDS011;5929;51.906;7.674;2023-06-26T08:30:36;18.52;;;6.80;;
11743;SDS011;5929;51.906;7.674;2023-06-26T08:33:02;12.63;;;6.40;;
11743;SDS011;5929;51.906;7.674;2023-06-26T08:35:30;15.10;;;6.85;;
11743;SDS011;5929;51.906;7.674;2023-06-26T08:37:57;11.38;;;5.65;;
11743;SDS011;5929;51.906;7.674;2023-06-26T08:40:24;12.13;;;6.07;;
11743;SDS011;5929;51.906;7.674;2023-06-26T08:42:52;14.75;;;6.47;;
11743;SDS011;5929;51.906;7.674;2023-06-26T08:45:19;13.52;;;6.03;;
11743;SDS011;5929;51.906;7.674;2023-06-26T08:47:46;15.95;;;6.10;;
11743;SDS011;5929;51.906;7.674;2023-06-26T08:50:20;12.55;;;5.50;;
11743;SDS011;5929;51.906;7.674;2023-06-26T08:52:53;17.05;;;6.63;;
11743;SDS011;5929;51.906;7.674;2023-06-26T08:55:25;16.98;;;5.57;;
11743;SDS011;5929;51.906;7.674;2023-06-26T08:57:54;15.05;;;6.38;;
11743;SDS011;5929;51.906;7.674;2023-06-26T09:00:22;13.88;;;6.00;;
11743;SDS011;5929;51.906;7.674;2023-06-26T09:02:49;16.23;;;6.50;;
11743;SDS011;5929;51.906;7.674;2023-06-26T09:05:16;12.55;;;6.15;;
11743;SDS011;5929;51.906;7.674;2023-06-26T09:07:44;12.68;;;5.90;;
11743;SDS011;5929;51.906;7.674;2023-06-26T09:10:12;12.90;;;5.45;;
11743;SDS011;5929;51.906;7.674;2023-06-26T09:12:39;13.85;;;5.35;;
11743;SDS011;5929;51.906;7.674;2023-06-26T09:15:06;11.30;;;5.40;;
11743;SDS011;5929;51.906;7.674;2023-06-26T09:17:34;14.10;;;5.30;;
11743;SDS011;5929;51.906;7.674;2023-06-26T09:20:08;9.40;;;4.60;;
11743;SDS011;5929;51.906;7.674;2023-06-26T09:22:37;13.98;;;4.53;;
11743;SDS011;5929;51.906;7.674;2023-06-26T09:25:05;14.27;;;4.53;;
11743;SDS011;5929;51.906;7.674;2023-06-26T09:27:36;12.88;;;4.55;;
11743;SDS011;5929;51.906;7.674;2023-06-26T09:30:03;24.80;;;5.10;;
11743;SDS011;5929;51.906;7.674;2023-06-26T09:32:33;8.77;;;4.15;;
11743;SDS011;5929;51.906;7.674;2023-06-26T09:35:01;11.25;;;4.65;;
11743;SDS011;5929;51.906;7.674;2023-06-26T09:37:29;12.02;;;4.53;;
11743;SDS011;5929;51.906;7.674;2023-06-26T09:39:56;11.40;;;4.95;;
11743;SDS011;5929;51.906;7.674;2023-06-26T09:42:23;10.75;;;4.32;;
11743;SDS011;5929;51.906;7.674;2023-06-26T09:44:51;8.25;;;3.33;;
11743;SDS011;5929;51.906;7.674;2023-06-26T09:47:19;7.38;;;3.15;;
11743;SDS011;5929;51.906;7.674;2023-06-26T09:49:47;7.15;;;3.85;;
11743;SDS011;5929;51.906;7.674;2023-06-26T09:52:15;14.07;;;4.03;;
11743;SDS011;5929;51.906;7.674;2023-06-26T09:54:43;9.00;;;3.67;;
11743;SDS011;5929;51.906;7.674;2023-06-26T09:57:11;10.63;;;4.10;;
11743;SDS011;5929;51.906;7.674;2023-06-26T09:59:39;9.48;;;3.85;;
11743;SDS011;5929;51.906;7.674;2023-06-26T10:02:09;16.20;;;4.72;;
11743;SDS011;5929;51.906;7.674;2023-06-26T10:04:37;11.40;;;4.50;;
11743;SDS011;5929;51.906;7.674;2023-06-26T10:07:04;12.07;;;4.00;;
11743;SDS011;5929;51.906;7.674;2023-06-26T10:09:32;9.73;;;4.50;;
11743;SDS011;5929;51.906;7.674;2023-06-26T10:12:03;9.88;;;4.00;;
11743;SDS011;5929;51.906;7.674;2023-06-26T10:14:36;11.60;;;4.55;;
11743;SDS011;5929;51.906;7.674;2023-06-26T10:17:07;9.70;;;4.55;;
11743;SDS011;5929;51.906;7.674;2023-06-26T10:19:39;8.90;;;4.10;;
11743;SDS011;5929;51.906;7.674;2023-06-26T10:22:10;8.82;;;4.30;;
11743;SDS011;5929;51.906;7.674;2023-06-26T10:24:40;10.10;;;3.80;;
11743;SDS011;5929;51.906;7.674;2023-06-26T10:27:14;7.05;;;3.05;;
11743;SDS011;5929;51.906;7.674;2023-06-26T10:29:43;7.75;;;3.20;;
11743;SDS011;5929;51.906;7.674;2023-06-26T10:32:13;7.35;;;3.67;;
11743;SDS011;5929;51.906;7.674;2023-06-26T10:34:44;7.35;;;3.50;;
11743;SDS011;5929;51.906;7.674;2023-06-26T10:37:11;6.90;;;2.90;;
11743;SDS011;5929;51.906;7.674;2023-06-26T10:39:48;6.50;;;3.10;;
11743;SDS011;5929;51.906;7.674;2023-06-26T10:42:16;6.60;;;3.13;;
11743;SDS011;5929;51.906;7.674;2023-06-26T10:44:44;6.20;;;2.63;;
11743;SDS011;5929;51.906;7.674;2023-06-26T10:47:28;7.97;;;3.67;;
11743;SDS011;5929;51.906;7.674;2023-06-26T10:50:06;7.45;;;2.72;;
11743;SDS011;5929;51.906;7.674;2023-06-26T10:52:43;8.38;;;3.33;;
11743;SDS011;5929;51.906;7.674;2023-06-26T10:55:09;7.07;;;3.15;;
11743;SDS011;5929;51.906;7.674;2023-06-26T10:57:36;6.20;;;2.78;;
11743;SDS011;5929;51.906;7.674;2023-06-26T11:00:11;6.22;;;2.70;;
11743;SDS011;5929;51.906;7.674;2023-06-26T11:02:51;5.40;;;2.25;;
11743;SDS011;5929;51.906;7.674;2023-06-26T11:05:25;7.85;;;2.83;;
11743;SDS011;5929;51.906;7.674;2023-06-26T11:10:48;7.13;;;2.67;;
11743;SDS011;5929;51.906;7.674;2023-06-26T11:13:15;6.43;;;3.13;;
11743;SDS011;5929;51.906;7.674;2023-06-26T11:15:43;7.28;;;3.10;;
11743;SDS011;5929;51.906;7.674;2023-06-26T11:18:11;4.70;;;2.42;;
11743;SDS011;5929;51.906;7.674;2023-06-26T11:20:39;5.18;;;3.22;;
11743;SDS011;5929;51.906;7.674;2023-06-26T11:23:06;5.82;;;2.78;;
11743;SDS011;5929;51.906;7.674;2023-06-26T11:25:36;6.45;;;2.53;;
11743;SDS011;5929;51.906;7.674;2023-06-26T11:28:04;5.90;;;2.20;;
11743;SDS011;5929;51.906;7.674;2023-06-26T11:30:31;7.18;;;2.22;;
11743;SDS011;5929;51.906;7.674;2023-06-26T11:33:05;6.35;;;2.50;;
11743;SDS011;5929;51.906;7.674;2023-06-26T11:35:34;6.43;;;2.92;;
11743;SDS011;5929;51.906;7.674;2023-06-26T11:38:02;5.70;;;2.40;;
11743;SDS011;5929;51.906;7.674;2023-06-26T11:40:30;5.72;;;2.47;;
11743;SDS011;5929;51.906;7.674;2023-06-26T11:43:01;7.63;;;2.65;;
11743;SDS011;5929;51.906;7.674;2023-06-26T11:45:28;6.88;;;2.90;;
11743;SDS011;5929;51.906;7.674;2023-06-26T11:47:56;7.68;;;2.50;;
11743;SDS011;5929;51.906;7.674;2023-06-26T11:50:24;8.35;;;2.60;;
11743;SDS011;5929;51.906;7.674;2023-06-26T11:52:56;6.72;;;2.55;;
11743;SDS011;5929;51.906;7.674;2023-06-26T11:55:24;4.65;;;2.40;;
11743;SDS011;5929;51.906;7.674;2023-06-26T11:57:53;9.18;;;2.60;;
11743;SDS011;5929;51.906;7.674;2023-06-26T12:00:21;6.32;;;2.63;;
11743;SDS011;5929;51.906;7.674;2023-06-26T12:02:51;7.90;;;2.90;;
11743;SDS011;5929;51.906;7.674;2023-06-26T12:05:19;6.10;;;2.33;;
11743;SDS011;5929;51.906;7.674;2023-06-26T12:07:47;7.20;;;2.55;;
11743;SDS011;5929;51.906;7.674;2023-06-26T12:10:18;6.75;;;2.75;;
11743;SDS011;5929;51.906;7.674;2023-06-26T12:12:45;6.60;;;2.35;;
11743;SDS011;5929;51.906;7.674;2023-06-26T12:15:13;5.72;;;2.40;;
11743;SDS011;5929;51.906;7.674;2023-06-26T12:17:42;8.05;;;2.60;;
11743;SDS011;5929;51.906;7.674;2023-06-26T12:20:17;6.65;;;2.67;;
11743;SDS011;5929;51.906;7.674;2023-06-26T12:22:45;7.53;;;2.95;;
11743;SDS011;5929;51.906;7.674;2023-06-26T12:25:12;7.35;;;2.80;;
11743;SDS011;5929;51.906;7.674;2023-06-26T12:27:45;5.95;;;2.30;;
11743;SDS011;5929;51.906;7.674;2023-06-26T12:30:12;7.65;;;2.55;;
11743;SDS011;5929;51.906;7.674;2023-06-26T12:32:40;8.23;;;2.47;;
11743;SDS011;5929;51.906;7.674;2023-06-26T12:35:09;6.90;;;2.40;;
11743;SDS011;5929;51.906;7.674;2023-06-26T12:37:36;7.93;;;2.00;;
11743;SDS011;5929;51.906;7.674;2023-06-26T12:40:09;5.38;;;1.65;;
11743;SDS011;5929;51.906;7.674;2023-06-26T12:42:42;6.55;;;1.73;;
11743;SDS011;5929;51.906;7.674;2023-06-26T12:45:14;5.50;;;1.95;;
11743;SDS011;5929;51.906;7.674;2023-06-26T12:47:41;4.28;;;1.88;;
11743;SDS011;5929;51.906;7.674;2023-06-26T12:50:08;4.70;;;2.00;;
11743;SDS011;5929;51.906;7.674;2023-06-26T12:52:35;8.00;;;1.65;;
11743;SDS011;5929;51.906;7.674;2023-06-26T12:55:02;5.75;;;1.77;;
11743;SDS011;5929;51.906;7.674;2023-06-26T12:57:31;4.20;;;1.75;;
11743;SDS011;5929;51.906;7.674;2023-06-26T13:00:00;7.07;;;1.55;;
11743;SDS011;5929;51.906;7.674;2023-06-26T13:02:31;3.47;;;1.33;;
11743;SDS011;5929;51.906;7.674;2023-06-26T13:04:58;5.70;;;1.70;;
11743;SDS011;5929;51.906;7.674;2023-06-26T13:07:25;3.45;;;1.25;;
11743;SDS011;5929;51.906;7.674;2023-06-26T13:09:52;5.95;;;1.58;;
11743;SDS011;5929;51.906;7.674;2023-06-26T13:12:20;3.72;;;1.20;;
11743;SDS011;5929;51.906;7.674;2023-06-26T13:14:46;8.15;;;1.40;;
11743;SDS011;5929;51.906;7.674;2023-06-26T13:17:13;4.22;;;1.40;;
11743;SDS011;5929;51.906;7.674;2023-06-26T13:19:41;4.78;;;1.38;;
11743;SDS011;5929;51.906;7.674;2023-06-26T13:22:08;11.10;;;1.52;;
11743;SDS011;5929;51.906;7.674;2023-06-26T13:24:35;5.50;;;1.85;;
11743;SDS011;5929;51.906;7.674;2023-06-26T13:27:02;4.60;;;1.38;;
11743;SDS011;5929;51.906;7.674;2023-06-26T13:29:29;6.65;;;1.40;;
11743;SDS011;5929;51.906;7.674;2023-06-26T13:31:58;5.35;;;1.40;;
11743;SDS011;5929;51.906;7.674;2023-06-26T13:34:27;4.75;;;1.45;;
11743;SDS011;5929;51.906;7.674;2023-06-26T13:36:55;4.40;;;1.30;;
11743;SDS011;5929;51.906;7.674;2023-06-26T13:39:24;4.40;;;1.45;;
11743;SDS011;5929;51.906;7.674;2023-06-26T13:41:51;6.93;;;1.60;;
11743;SDS011;5929;51.906;7.674;2023-06-26T13:44:18;7.50;;;1.50;;
11743;SDS011;5929;51.906;7.674;2023-06-26T13:46:47;4.35;;;1.38;;
11743;SDS011;5929;51.906;7.674;2023-06-26T13:49:14;6.18;;;1.42;;
11743;SDS011;5929;51.906;7.674;2023-06-26T13:51:41;3.92;;;1.42;;
11743;SDS011;5929;51.906;7.674;2023-06-26T13:54:13;6.55;;;1.38;;
11743;SDS011;5929;51.906;7.674;2023-06-26T13:56:42;4.32;;;1.30;;
11743;SDS011;5929;51.906;7.674;2023-06-26T13:59:09;5.95;;;1.10;;
11743;SDS011;5929;51.906;7.674;2023-06-26T14:01:37;4.20;;;1.38;;
11743;SDS011;5929;51.906;7.674;2023-06-26T14:04:04;5.32;;;1.50;;
11743;SDS011;5929;51.906;7.674;2023-06-26T14:06:30;6.65;;;1.45;;
11743;SDS011;5929;51.906;7.674;2023-06-26T14:08:59;5.35;;;1.10;;
11743;SDS011;5929;51.906;7.674;2023-06-26T14:11:27;5.00;;;1.48;;
11743;SDS011;5929;51.906;7.674;2023-06-26T14:13:54;4.45;;;1.30;;
11743;SDS011;5929;51.906;7.674;2023-06-26T14:16:24;5.28;;;1.30;;
11743;SDS011;5929;51.906;7.674;2023-06-26T14:18:53;4.85;;;1.40;;
11743;SDS011;5929;51.906;7.674;2023-06-26T14:21:20;4.78;;;1.33;;
11743;SDS011;5929;51.906;7.674;2023-06-26T14:23:47;5.65;;;1.60;;
11743;SDS011;5929;51.906;7.674;2023-06-26T14:26:16;5.45;;;1.40;;
11743;SDS011;5929;51.906;7.674;2023-06-26T14:28:44;4.78;;;1.35;;
11743;SDS011;5929;51.906;7.674;2023-06-26T14:31:11;5.80;;;1.50;;
11743;SDS011;5929;51.906;7.674;2023-06-26T14:33:38;3.58;;;1.30;;
11743;SDS011;5929;51.906;7.674;2023-06-26T14:36:05;3.88;;;1.30;;
11743;SDS011;5929;51.906;7.674;2023-06-26T14:38:32;5.30;;;1.40;;
11743;SDS011;5929;51.906;7.674;2023-06-26T14:40:59;5.63;;;1.40;;
11743;SDS011;5929;51.906;7.674;2023-06-26T14:43:26;4.47;;;1.30;;
11743;SDS011;5929;51.906;7.674;2023-06-26T14:45:54;5.65;;;1.45;;
11743;SDS011;5929;51.906;7.674;2023-06-26T14:48:20;4.78;;;1.10;;
11743;SDS011;5929;51.906;7.674;2023-06-26T14:50:47;4.10;;;1.38;;
11743;SDS011;5929;51.906;7.674;2023-06-26T14:53:14;4.55;;;1.25;;
11743;SDS011;5929;51.906;7.674;2023-06-26T14:55:43;3.63;;;1.05;;
11743;SDS011;5929;51.906;7.674;2023-06-26T14:58:10;3.97;;;1.20;;